KRSN

Ruston Regional Airport

Ruston, Louisiana, USA
METAR KRSN 181515Z AUTO 00000KT 10SM CLR M05/M08 A3065 RMK AO2 T10481085
Observed Flight Rules
Jan-18 @ 15:15 UTC (26 minutes ago) Visual Flight Rules
Wind Visibility Clouds
Calm 10 miles
  • Clear skies
Temperatures Readings
Current -5°C / 23°F
Dewpoint -9°C / 16°F
Humidity 74%
Altimeter 30.65" Hg
Pressure 1038 hPa
Elevation 95
METAR KRSN 181515Z AUTO 00000KT 10SM CLR M05/M08 A3065 RMK AO2 T10481085
Observed Flight Rules
Jan-18 @ 15:15 UTC
(26 minutes ago)
VFR
Wind Visibility
Calm 10 miles
Clouds
  • Clear skies
Temperature Dewpoint
-5°C / 23°F -9°C / 16°F
Humidity Altimeter Pressure
74% 30.65" Hg 1038 hPa